sensor_id;sensor_type;location;lat;lon;timestamp;P1;durP1;ratioP1;P2;durP2;ratioP2
76268;SDS011;65088;52.352;4.846;2022-12-18T00:01:37;56.63;;;17.98;;
76268;SDS011;65088;52.352;4.846;2022-12-18T00:04:07;58.83;;;18.92;;
76268;SDS011;65088;52.352;4.846;2022-12-18T00:06:49;56.65;;;18.55;;
76268;SDS011;65088;52.352;4.846;2022-12-18T00:09:18;53.10;;;18.75;;
76268;SDS011;65088;52.352;4.846;2022-12-18T00:11:48;55.88;;;16.67;;
76268;SDS011;65088;52.352;4.846;2022-12-18T00:14:17;52.00;;;16.08;;
76268;SDS011;65088;52.352;4.846;2022-12-18T00:16:46;57.42;;;17.55;;
76268;SDS011;65088;52.352;4.846;2022-12-18T00:19:16;54.95;;;18.90;;
76268;SDS011;65088;52.352;4.846;2022-12-18T00:21:45;53.83;;;17.95;;
76268;SDS011;65088;52.352;4.846;2022-12-18T00:24:17;67.03;;;19.15;;
76268;SDS011;65088;52.352;4.846;2022-12-18T00:26:46;59.78;;;18.63;;
76268;SDS011;65088;52.352;4.846;2022-12-18T00:29:15;52.92;;;18.90;;
76268;SDS011;65088;52.352;4.846;2022-12-18T00:31:45;46.50;;;16.40;;
76268;SDS011;65088;52.352;4.846;2022-12-18T00:34:15;52.65;;;17.35;;
76268;SDS011;65088;52.352;4.846;2022-12-18T00:36:44;51.83;;;18.30;;
76268;SDS011;65088;52.352;4.846;2022-12-18T00:39:18;65.78;;;18.33;;
76268;SDS011;65088;52.352;4.846;2022-12-18T00:41:48;57.58;;;18.75;;
76268;SDS011;65088;52.352;4.846;2022-12-18T00:44:30;51.95;;;17.75;;
76268;SDS011;65088;52.352;4.846;2022-12-18T00:47:00;51.80;;;17.38;;
76268;SDS011;65088;52.352;4.846;2022-12-18T00:49:29;53.28;;;19.00;;
76268;SDS011;65088;52.352;4.846;2022-12-18T00:51:58;40.80;;;13.88;;
76268;SDS011;65088;52.352;4.846;2022-12-18T00:54:30;51.05;;;16.38;;
76268;SDS011;65088;52.352;4.846;2022-12-18T00:56:59;57.65;;;17.33;;
76268;SDS011;65088;52.352;4.846;2022-12-18T00:59:29;59.53;;;18.00;;
76268;SDS011;65088;52.352;4.846;2022-12-18T01:01:58;52.13;;;15.93;;
76268;SDS011;65088;52.352;4.846;2022-12-18T01:04:27;58.42;;;17.58;;
76268;SDS011;65088;52.352;4.846;2022-12-18T01:06:59;58.03;;;18.73;;
76268;SDS011;65088;52.352;4.846;2022-12-18T01:09:31;45.60;;;16.17;;
76268;SDS011;65088;52.352;4.846;2022-12-18T01:12:01;53.35;;;17.35;;
76268;SDS011;65088;52.352;4.846;2022-12-18T01:14:30;47.72;;;15.85;;
76268;SDS011;65088;52.352;4.846;2022-12-18T01:16:59;62.00;;;17.48;;
76268;SDS011;65088;52.352;4.846;2022-12-18T01:19:32;50.08;;;18.17;;
76268;SDS011;65088;52.352;4.846;2022-12-18T01:22:03;53.22;;;17.38;;
76268;SDS011;65088;52.352;4.846;2022-12-18T01:24:35;47.05;;;18.27;;
76268;SDS011;65088;52.352;4.846;2022-12-18T01:27:04;47.60;;;16.15;;
76268;SDS011;65088;52.352;4.846;2022-12-18T01:29:33;44.25;;;15.48;;
76268;SDS011;65088;52.352;4.846;2022-12-18T01:32:03;52.42;;;17.45;;
76268;SDS011;65088;52.352;4.846;2022-12-18T01:34:33;55.67;;;17.88;;
76268;SDS011;65088;52.352;4.846;2022-12-18T01:37:03;46.65;;;16.13;;
76268;SDS011;65088;52.352;4.846;2022-12-18T01:39:37;38.55;;;15.73;;
76268;SDS011;65088;52.352;4.846;2022-12-18T01:42:09;47.88;;;17.10;;
76268;SDS011;65088;52.352;4.846;2022-12-18T01:47:50;51.47;;;17.75;;
76268;SDS011;65088;52.352;4.846;2022-12-18T01:50:22;47.72;;;15.95;;
76268;SDS011;65088;52.352;4.846;2022-12-18T01:52:54;53.30;;;15.57;;
76268;SDS011;65088;52.352;4.846;2022-12-18T01:55:29;56.65;;;18.23;;
76268;SDS011;65088;52.352;4.846;2022-12-18T01:58:00;59.92;;;17.90;;
76268;SDS011;65088;52.352;4.846;2022-12-18T02:00:30;54.55;;;19.45;;
76268;SDS011;65088;52.352;4.846;2022-12-18T02:02:59;61.30;;;18.63;;
76268;SDS011;65088;52.352;4.846;2022-12-18T02:05:32;49.60;;;16.90;;
76268;SDS011;65088;52.352;4.846;2022-12-18T02:08:09;51.63;;;17.65;;
76268;SDS011;65088;52.352;4.846;2022-12-18T02:10:51;43.15;;;13.50;;
76268;SDS011;65088;52.352;4.846;2022-12-18T02:13:32;45.50;;;14.48;;
76268;SDS011;65088;52.352;4.846;2022-12-18T02:16:13;46.28;;;15.85;;
76268;SDS011;65088;52.352;4.846;2022-12-18T02:18:48;57.95;;;17.42;;
76268;SDS011;65088;52.352;4.846;2022-12-18T02:21:21;45.10;;;16.88;;
76268;SDS011;65088;52.352;4.846;2022-12-18T02:24:03;45.60;;;16.42;;
76268;SDS011;65088;52.352;4.846;2022-12-18T02:26:49;45.58;;;15.93;;
76268;SDS011;65088;52.352;4.846;2022-12-18T02:29:22;50.50;;;16.40;;
76268;SDS011;65088;52.352;4.846;2022-12-18T02:31:56;50.72;;;15.98;;
76268;SDS011;65088;52.352;4.846;2022-12-18T02:34:28;49.95;;;15.70;;
76268;SDS011;65088;52.352;4.846;2022-12-18T02:36:59;56.25;;;16.77;;
76268;SDS011;65088;52.352;4.846;2022-12-18T02:39:35;47.17;;;17.67;;
76268;SDS011;65088;52.352;4.846;2022-12-18T02:42:08;50.55;;;17.60;;
76268;SDS011;65088;52.352;4.846;2022-12-18T02:44:43;51.92;;;16.83;;
76268;SDS011;65088;52.352;4.846;2022-12-18T02:47:16;45.22;;;15.30;;
76268;SDS011;65088;52.352;4.846;2022-12-18T02:49:51;45.97;;;16.42;;
76268;SDS011;65088;52.352;4.846;2022-12-18T02:52:31;43.90;;;15.70;;
76268;SDS011;65088;52.352;4.846;2022-12-18T02:55:16;44.55;;;16.33;;
76268;SDS011;65088;52.352;4.846;2022-12-18T02:58:01;40.90;;;13.35;;
76268;SDS011;65088;52.352;4.846;2022-12-18T03:00:37;36.15;;;13.88;;
76268;SDS011;65088;52.352;4.846;2022-12-18T03:03:11;41.42;;;12.95;;
76268;SDS011;65088;52.352;4.846;2022-12-18T03:05:45;39.13;;;15.20;;
76268;SDS011;65088;52.352;4.846;2022-12-18T03:08:19;37.85;;;13.57;;
76268;SDS011;65088;52.352;4.846;2022-12-18T03:10:51;45.35;;;15.60;;
76268;SDS011;65088;52.352;4.846;2022-12-18T03:13:34;43.67;;;15.27;;
76268;SDS011;65088;52.352;4.846;2022-12-18T03:16:07;39.70;;;14.77;;
76268;SDS011;65088;52.352;4.846;2022-12-18T03:18:42;46.70;;;15.43;;
76268;SDS011;65088;52.352;4.846;2022-12-18T03:21:15;36.47;;;13.88;;
76268;SDS011;65088;52.352;4.846;2022-12-18T03:23:50;39.50;;;15.13;;
76268;SDS011;65088;52.352;4.846;2022-12-18T03:26:26;45.28;;;14.35;;
76268;SDS011;65088;52.352;4.846;2022-12-18T03:29:06;43.25;;;15.30;;
76268;SDS011;65088;52.352;4.846;2022-12-18T03:31:39;40.88;;;15.30;;
76268;SDS011;65088;52.352;4.846;2022-12-18T03:34:12;37.72;;;14.23;;
76268;SDS011;65088;52.352;4.846;2022-12-18T03:36:47;41.80;;;14.55;;
76268;SDS011;65088;52.352;4.846;2022-12-18T03:39:23;42.53;;;16.25;;
76268;SDS011;65088;52.352;4.846;2022-12-18T03:41:59;43.88;;;14.27;;
76268;SDS011;65088;52.352;4.846;2022-12-18T03:44:46;38.33;;;13.98;;
76268;SDS011;65088;52.352;4.846;2022-12-18T03:47:29;45.70;;;15.10;;
76268;SDS011;65088;52.352;4.846;2022-12-18T03:50:10;44.22;;;16.30;;
76268;SDS011;65088;52.352;4.846;2022-12-18T03:52:51;46.00;;;16.98;;
76268;SDS011;65088;52.352;4.846;2022-12-18T03:55:27;44.45;;;15.07;;
76268;SDS011;65088;52.352;4.846;2022-12-18T03:58:04;48.65;;;16.70;;
76268;SDS011;65088;52.352;4.846;2022-12-18T04:01:05;52.85;;;18.60;;
76268;SDS011;65088;52.352;4.846;2022-12-18T04:03:45;41.00;;;15.63;;
76268;SDS011;65088;52.352;4.846;2022-12-18T04:06:24;45.78;;;16.00;;
76268;SDS011;65088;52.352;4.846;2022-12-18T04:08:54;39.33;;;14.15;;
76268;SDS011;65088;52.352;4.846;2022-12-18T04:11:26;44.65;;;16.15;;
76268;SDS011;65088;52.352;4.846;2022-12-18T04:14:00;41.70;;;15.95;;
76268;SDS011;65088;52.352;4.846;2022-12-18T04:16:34;43.65;;;14.93;;
76268;SDS011;65088;52.352;4.846;2022-12-18T04:19:10;52.97;;;16.60;;
76268;SDS011;65088;52.352;4.846;2022-12-18T04:21:49;47.67;;;16.02;;
76268;SDS011;65088;52.352;4.846;2022-12-18T04:24:20;49.80;;;16.30;;
76268;SDS011;65088;52.352;4.846;2022-12-18T04:27:01;39.53;;;15.35;;
76268;SDS011;65088;52.352;4.846;2022-12-18T04:29:38;42.17;;;15.68;;
76268;SDS011;65088;52.352;4.846;2022-12-18T04:32:12;40.22;;;14.13;;
76268;SDS011;65088;52.352;4.846;2022-12-18T04:34:44;38.58;;;14.52;;
76268;SDS011;65088;52.352;4.846;2022-12-18T04:37:14;38.50;;;15.63;;
76268;SDS011;65088;52.352;4.846;2022-12-18T04:39:51;44.35;;;16.10;;
76268;SDS011;65088;52.352;4.846;2022-12-18T04:42:32;43.88;;;17.48;;
76268;SDS011;65088;52.352;4.846;2022-12-18T04:45:07;48.30;;;16.80;;
76268;SDS011;65088;52.352;4.846;2022-12-18T04:50:29;43.92;;;15.68;;
76268;SDS011;65088;52.352;4.846;2022-12-18T04:53:00;41.15;;;14.27;;
76268;SDS011;65088;52.352;4.846;2022-12-18T04:55:36;45.75;;;16.45;;
76268;SDS011;65088;52.352;4.846;2022-12-18T04:58:06;37.85;;;14.90;;
76268;SDS011;65088;52.352;4.846;2022-12-18T05:00:37;44.28;;;17.38;;
76268;SDS011;65088;52.352;4.846;2022-12-18T05:03:13;49.55;;;18.83;;
76268;SDS011;65088;52.352;4.846;2022-12-18T05:05:43;40.05;;;15.23;;
76268;SDS011;65088;52.352;4.846;2022-12-18T05:08:13;44.92;;;15.80;;
76268;SDS011;65088;52.352;4.846;2022-12-18T05:10:44;45.83;;;16.77;;
76268;SDS011;65088;52.352;4.846;2022-12-18T05:13:18;48.00;;;17.92;;
76268;SDS011;65088;52.352;4.846;2022-12-18T05:16:06;46.38;;;16.83;;
76268;SDS011;65088;52.352;4.846;2022-12-18T05:18:41;42.78;;;12.98;;
76268;SDS011;65088;52.352;4.846;2022-12-18T05:21:15;44.47;;;15.80;;
76268;SDS011;65088;52.352;4.846;2022-12-18T05:23:50;45.95;;;16.63;;
76268;SDS011;65088;52.352;4.846;2022-12-18T05:26:20;47.97;;;15.60;;
76268;SDS011;65088;52.352;4.846;2022-12-18T05:28:50;54.75;;;17.02;;
76268;SDS011;65088;52.352;4.846;2022-12-18T05:31:21;48.50;;;16.67;;
76268;SDS011;65088;52.352;4.846;2022-12-18T05:33:54;43.88;;;16.50;;
76268;SDS011;65088;52.352;4.846;2022-12-18T05:36:25;47.13;;;17.30;;
76268;SDS011;65088;52.352;4.846;2022-12-18T05:38:57;47.92;;;17.00;;
76268;SDS011;65088;52.352;4.846;2022-12-18T05:41:30;49.72;;;17.20;;
76268;SDS011;65088;52.352;4.846;2022-12-18T05:44:01;47.60;;;16.77;;
76268;SDS011;65088;52.352;4.846;2022-12-18T05:46:31;45.08;;;16.05;;
76268;SDS011;65088;52.352;4.846;2022-12-18T05:49:07;45.70;;;18.20;;
76268;SDS011;65088;52.352;4.846;2022-12-18T05:51:40;44.47;;;14.55;;
76268;SDS011;65088;52.352;4.846;2022-12-18T05:54:18;37.53;;;14.85;;
76268;SDS011;65088;52.352;4.846;2022-12-18T05:56:50;45.40;;;16.80;;
76268;SDS011;65088;52.352;4.846;2022-12-18T05:59:24;43.67;;;16.15;;
76268;SDS011;65088;52.352;4.846;2022-12-18T06:02:01;39.58;;;13.90;;
76268;SDS011;65088;52.352;4.846;2022-12-18T06:04:34;36.45;;;14.80;;
76268;SDS011;65088;52.352;4.846;2022-12-18T06:07:06;45.08;;;15.70;;
76268;SDS011;65088;52.352;4.846;2022-12-18T06:09:35;43.78;;;16.77;;
76268;SDS011;65088;52.352;4.846;2022-12-18T06:12:14;39.83;;;16.52;;
76268;SDS011;65088;52.352;4.846;2022-12-18T06:14:44;38.28;;;14.55;;
76268;SDS011;65088;52.352;4.846;2022-12-18T06:17:16;41.05;;;16.08;;
76268;SDS011;65088;52.352;4.846;2022-12-18T06:19:50;41.20;;;16.75;;
76268;SDS011;65088;52.352;4.846;2022-12-18T06:22:22;46.10;;;18.70;;
76268;SDS011;65088;52.352;4.846;2022-12-18T06:24:53;36.47;;;14.80;;
76268;SDS011;65088;52.352;4.846;2022-12-18T06:27:26;35.15;;;15.32;;
76268;SDS011;65088;52.352;4.846;2022-12-18T06:30:00;31.05;;;14.98;;
76268;SDS011;65088;52.352;4.846;2022-12-18T06:32:30;35.30;;;15.82;;
76268;SDS011;65088;52.352;4.846;2022-12-18T06:35:05;38.80;;;15.73;;
76268;SDS011;65088;52.352;4.846;2022-12-18T06:37:39;41.65;;;16.33;;
76268;SDS011;65088;52.352;4.846;2022-12-18T06:40:20;36.30;;;15.52;;
76268;SDS011;65088;52.352;4.846;2022-12-18T06:42:59;36.30;;;15.13;;
76268;SDS011;65088;52.352;4.846;2022-12-18T06:45:29;37.35;;;16.08;;
76268;SDS011;65088;52.352;4.846;2022-12-18T06:48:01;33.65;;;14.13;;
76268;SDS011;65088;52.352;4.846;2022-12-18T06:50:44;33.83;;;13.85;;
76268;SDS011;65088;52.352;4.846;2022-12-18T06:53:19;33.45;;;13.38;;
76268;SDS011;65088;52.352;4.846;2022-12-18T06:55:50;25.20;;;11.18;;
76268;SDS011;65088;52.352;4.846;2022-12-18T06:58:20;22.80;;;11.25;;
76268;SDS011;65088;52.352;4.846;2022-12-18T07:00:50;28.15;;;12.20;;
76268;SDS011;65088;52.352;4.846;2022-12-18T07:03:22;27.13;;;12.90;;
76268;SDS011;65088;52.352;4.846;2022-12-18T07:05:54;26.38;;;12.93;;
76268;SDS011;65088;52.352;4.846;2022-12-18T07:08:23;25.25;;;11.55;;
76268;SDS011;65088;52.352;4.846;2022-12-18T07:10:55;25.50;;;11.63;;
76268;SDS011;65088;52.352;4.846;2022-12-18T07:13:30;24.42;;;11.43;;
76268;SDS011;65088;52.352;4.846;2022-12-18T07:16:05;25.67;;;10.95;;
76268;SDS011;65088;52.352;4.846;2022-12-18T07:18:39;28.45;;;11.85;;
76268;SDS011;65088;52.352;4.846;2022-12-18T07:21:18;25.13;;;11.93;;
76268;SDS011;65088;52.352;4.846;2022-12-18T07:23:50;21.50;;;11.32;;
76268;SDS011;65088;52.352;4.846;2022-12-18T07:26:20;26.98;;;12.32;;
76268;SDS011;65088;52.352;4.846;2022-12-18T07:28:50;21.67;;;11.40;;
76268;SDS011;65088;52.352;4.846;2022-12-18T07:34:09;27.27;;;10.85;;
76268;SDS011;65088;52.352;4.846;2022-12-18T07:36:51;24.98;;;11.80;;
76268;SDS011;65088;52.352;4.846;2022-12-18T07:39:29;25.15;;;9.75;;
76268;SDS011;65088;52.352;4.846;2022-12-18T07:41:59;19.67;;;10.45;;
76268;SDS011;65088;52.352;4.846;2022-12-18T07:44:47;26.42;;;12.30;;
76268;SDS011;65088;52.352;4.846;2022-12-18T07:47:20;22.05;;;10.98;;
76268;SDS011;65088;52.352;4.846;2022-12-18T07:49:52;21.92;;;10.88;;
76268;SDS011;65088;52.352;4.846;2022-12-18T07:52:28;20.02;;;11.27;;
76268;SDS011;65088;52.352;4.846;2022-12-18T07:54:59;19.75;;;9.20;;
76268;SDS011;65088;52.352;4.846;2022-12-18T07:57:31;20.27;;;9.52;;
76268;SDS011;65088;52.352;4.846;2022-12-18T08:00:02;21.42;;;9.27;;
76268;SDS011;65088;52.352;4.846;2022-12-18T08:02:38;23.80;;;11.05;;
76268;SDS011;65088;52.352;4.846;2022-12-18T08:05:11;20.48;;;9.77;;
76268;SDS011;65088;52.352;4.846;2022-12-18T08:07:45;19.67;;;9.73;;
76268;SDS011;65088;52.352;4.846;2022-12-18T08:10:16;22.05;;;9.90;;
76268;SDS011;65088;52.352;4.846;2022-12-18T08:12:48;12.82;;;6.63;;
76268;SDS011;65088;52.352;4.846;2022-12-18T08:15:22;17.25;;;7.97;;
76268;SDS011;65088;52.352;4.846;2022-12-18T08:17:54;17.65;;;9.20;;
76268;SDS011;65088;52.352;4.846;2022-12-18T08:23:03;18.35;;;9.50;;
76268;SDS011;65088;52.352;4.846;2022-12-18T08:25:35;18.40;;;7.80;;
76268;SDS011;65088;52.352;4.846;2022-12-18T08:28:08;19.55;;;9.90;;
76268;SDS011;65088;52.352;4.846;2022-12-18T08:30:43;18.42;;;9.52;;
76268;SDS011;65088;52.352;4.846;2022-12-18T08:33:28;18.67;;;8.65;;
76268;SDS011;65088;52.352;4.846;2022-12-18T08:36:02;15.90;;;9.35;;
76268;SDS011;65088;52.352;4.846;2022-12-18T08:38:36;17.98;;;9.48;;
76268;SDS011;65088;52.352;4.846;2022-12-18T08:41:07;17.23;;;8.80;;
76268;SDS011;65088;52.352;4.846;2022-12-18T08:43:38;17.40;;;8.60;;
76268;SDS011;65088;52.352;4.846;2022-12-18T08:46:20;20.23;;;9.07;;
76268;SDS011;65088;52.352;4.846;2022-12-18T08:48:54;17.33;;;8.88;;
76268;SDS011;65088;52.352;4.846;2022-12-18T08:51:28;19.45;;;9.00;;
76268;SDS011;65088;52.352;4.846;2022-12-18T08:54:01;18.42;;;8.63;;
76268;SDS011;65088;52.352;4.846;2022-12-18T08:56:32;15.30;;;8.35;;
76268;SDS011;65088;52.352;4.846;2022-12-18T08:59:12;15.77;;;9.43;;
76268;SDS011;65088;52.352;4.846;2022-12-18T09:01:43;18.02;;;9.30;;
76268;SDS011;65088;52.352;4.846;2022-12-18T09:04:15;16.73;;;8.45;;
76268;SDS011;65088;52.352;4.846;2022-12-18T09:06:54;15.98;;;9.07;;
76268;SDS011;65088;52.352;4.846;2022-12-18T09:09:27;15.85;;;8.32;;
76268;SDS011;65088;52.352;4.846;2022-12-18T09:11:57;17.75;;;9.10;;
76268;SDS011;65088;52.352;4.846;2022-12-18T09:14:26;17.40;;;9.38;;
76268;SDS011;65088;52.352;4.846;2022-12-18T09:16:56;17.02;;;9.23;;
76268;SDS011;65088;52.352;4.846;2022-12-18T09:19:32;22.23;;;9.52;;
76268;SDS011;65088;52.352;4.846;2022-12-18T09:22:12;19.35;;;9.57;;
76268;SDS011;65088;52.352;4.846;2022-12-18T09:24:50;12.77;;;7.78;;
76268;SDS011;65088;52.352;4.846;2022-12-18T09:27:24;18.05;;;9.65;;
76268;SDS011;65088;52.352;4.846;2022-12-18T09:29:54;17.60;;;9.68;;
76268;SDS011;65088;52.352;4.846;2022-12-18T09:32:26;20.15;;;9.13;;
76268;SDS011;65088;52.352;4.846;2022-12-18T09:34:55;16.55;;;8.35;;
76268;SDS011;65088;52.352;4.846;2022-12-18T09:37:25;23.17;;;9.55;;
76268;SDS011;65088;52.352;4.846;2022-12-18T09:39:58;14.30;;;7.70;;
76268;SDS011;65088;52.352;4.846;2022-12-18T09:42:28;16.75;;;9.15;;
76268;SDS011;65088;52.352;4.846;2022-12-18T09:44:57;15.18;;;8.65;;
76268;SDS011;65088;52.352;4.846;2022-12-18T09:47:28;19.30;;;10.82;;
76268;SDS011;65088;52.352;4.846;2022-12-18T09:50:05;17.73;;;8.43;;
76268;SDS011;65088;52.352;4.846;2022-12-18T09:52:47;17.42;;;8.77;;
76268;SDS011;65088;52.352;4.846;2022-12-18T09:55:24;19.83;;;10.05;;
76268;SDS011;65088;52.352;4.846;2022-12-18T09:58:00;18.42;;;9.02;;
76268;SDS011;65088;52.352;4.846;2022-12-18T10:00:33;17.48;;;9.95;;
76268;SDS011;65088;52.352;4.846;2022-12-18T10:03:03;15.30;;;9.07;;
76268;SDS011;65088;52.352;4.846;2022-12-18T10:08:11;20.80;;;9.25;;
76268;SDS011;65088;52.352;4.846;2022-12-18T10:10:50;16.77;;;8.45;;
76268;SDS011;65088;52.352;4.846;2022-12-18T10:13:23;18.83;;;9.18;;
76268;SDS011;65088;52.352;4.846;2022-12-18T10:16:02;17.10;;;8.60;;
76268;SDS011;65088;52.352;4.846;2022-12-18T10:18:46;16.65;;;8.63;;
76268;SDS011;65088;52.352;4.846;2022-12-18T10:21:30;16.98;;;7.63;;
76268;SDS011;65088;52.352;4.846;2022-12-18T10:24:03;19.85;;;10.07;;
76268;SDS011;65088;52.352;4.846;2022-12-18T10:29:16;13.82;;;7.82;;
76268;SDS011;65088;52.352;4.846;2022-12-18T10:31:45;19.45;;;10.13;;
76268;SDS011;65088;52.352;4.846;2022-12-18T10:34:15;17.30;;;9.23;;
76268;SDS011;65088;52.352;4.846;2022-12-18T10:36:47;18.98;;;9.63;;
76268;SDS011;65088;52.352;4.846;2022-12-18T10:39:18;17.08;;;8.80;;
76268;SDS011;65088;52.352;4.846;2022-12-18T10:41:51;15.32;;;8.30;;
76268;SDS011;65088;52.352;4.846;2022-12-18T10:44:22;19.75;;;9.95;;
76268;SDS011;65088;52.352;4.846;2022-12-18T10:46:54;20.45;;;10.23;;
76268;SDS011;65088;52.352;4.846;2022-12-18T10:49:31;19.65;;;9.60;;
76268;SDS011;65088;52.352;4.846;2022-12-18T10:52:12;15.85;;;9.13;;
76268;SDS011;65088;52.352;4.846;2022-12-18T10:54:48;18.35;;;9.43;;
76268;SDS011;65088;52.352;4.846;2022-12-18T11:00:20;13.25;;;7.75;;
76268;SDS011;65088;52.352;4.846;2022-12-18T11:02:53;17.90;;;9.38;;
76268;SDS011;65088;52.352;4.846;2022-12-18T11:05:27;18.50;;;9.68;;
76268;SDS011;65088;52.352;4.846;2022-12-18T11:07:59;19.40;;;9.60;;
76268;SDS011;65088;52.352;4.846;2022-12-18T11:10:30;18.30;;;9.82;;
76268;SDS011;65088;52.352;4.846;2022-12-18T11:13:11;16.30;;;8.25;;
76268;SDS011;65088;52.352;4.846;2022-12-18T11:15:46;18.38;;;9.43;;
76268;SDS011;65088;52.352;4.846;2022-12-18T11:18:16;16.65;;;9.25;;
76268;SDS011;65088;52.352;4.846;2022-12-18T11:20:51;19.45;;;9.32;;
76268;SDS011;65088;52.352;4.846;2022-12-18T11:23:25;15.90;;;8.40;;
76268;SDS011;65088;52.352;4.846;2022-12-18T11:25:58;17.58;;;9.30;;
76268;SDS011;65088;52.352;4.846;2022-12-18T11:28:37;16.90;;;8.63;;
76268;SDS011;65088;52.352;4.846;2022-12-18T11:31:17;16.90;;;8.52;;
76268;SDS011;65088;52.352;4.846;2022-12-18T11:33:55;15.43;;;8.63;;
76268;SDS011;65088;52.352;4.846;2022-12-18T11:36:32;18.88;;;9.18;;
76268;SDS011;65088;52.352;4.846;2022-12-18T11:39:08;16.85;;;9.15;;
76268;SDS011;65088;52.352;4.846;2022-12-18T11:41:45;16.23;;;8.52;;
76268;SDS011;65088;52.352;4.846;2022-12-18T11:44:35;16.55;;;8.07;;
76268;SDS011;65088;52.352;4.846;2022-12-18T11:47:12;14.90;;;9.10;;
76268;SDS011;65088;52.352;4.846;2022-12-18T11:49:47;16.55;;;9.38;;
76268;SDS011;65088;52.352;4.846;2022-12-18T11:52:20;17.80;;;9.30;;
76268;SDS011;65088;52.352;4.846;2022-12-18T11:54:53;15.00;;;7.97;;
76268;SDS011;65088;52.352;4.846;2022-12-18T11:57:30;17.25;;;9.32;;
76268;SDS011;65088;52.352;4.846;2022-12-18T12:00:13;19.75;;;9.25;;
76268;SDS011;65088;52.352;4.846;2022-12-18T12:05:56;17.27;;;9.55;;
76268;SDS011;65088;52.352;4.846;2022-12-18T12:08:46;17.70;;;8.63;;
76268;SDS011;65088;52.352;4.846;2022-12-18T12:11:28;16.85;;;7.95;;
76268;SDS011;65088;52.352;4.846;2022-12-18T12:14:08;15.13;;;7.85;;
76268;SDS011;65088;52.352;4.846;2022-12-18T12:16:50;18.30;;;9.13;;
76268;SDS011;65088;52.352;4.846;2022-12-18T12:19:27;14.30;;;7.43;;
76268;SDS011;65088;52.352;4.846;2022-12-18T12:22:07;16.15;;;8.40;;
76268;SDS011;65088;52.352;4.846;2022-12-18T12:24:46;16.23;;;8.73;;
76268;SDS011;65088;52.352;4.846;2022-12-18T12:27:28;17.58;;;9.70;;
76268;SDS011;65088;52.352;4.846;2022-12-18T12:30:06;13.90;;;7.80;;
76268;SDS011;65088;52.352;4.846;2022-12-18T12:32:49;16.55;;;9.35;;
76268;SDS011;65088;52.352;4.846;2022-12-18T12:35:40;15.98;;;9.02;;
76268;SDS011;65088;52.352;4.846;2022-12-18T12:38:17;15.82;;;8.20;;
76268;SDS011;65088;52.352;4.846;2022-12-18T12:40:54;15.88;;;8.80;;
76268;SDS011;65088;52.352;4.846;2022-12-18T12:43:32;19.42;;;9.45;;
76268;SDS011;65088;52.352;4.846;2022-12-18T12:46:04;21.75;;;8.40;;
76268;SDS011;65088;52.352;4.846;2022-12-18T12:48:40;15.77;;;8.65;;
76268;SDS011;65088;52.352;4.846;2022-12-18T12:51:15;14.90;;;9.30;;
76268;SDS011;65088;52.352;4.846;2022-12-18T12:53:46;15.35;;;7.60;;
76268;SDS011;65088;52.352;4.846;2022-12-18T12:56:17;14.38;;;6.88;;
76268;SDS011;65088;52.352;4.846;2022-12-18T12:58:52;12.93;;;7.38;;
76268;SDS011;65088;52.352;4.846;2022-12-18T13:01:28;15.40;;;8.07;;
76268;SDS011;65088;52.352;4.846;2022-12-18T13:04:12;17.95;;;9.90;;
76268;SDS011;65088;52.352;4.846;2022-12-18T13:06:52;17.45;;;9.57;;
76268;SDS011;65088;52.352;4.846;2022-12-18T13:09:29;16.98;;;8.80;;
76268;SDS011;65088;52.352;4.846;2022-12-18T13:12:01;14.23;;;7.25;;
76268;SDS011;65088;52.352;4.846;2022-12-18T13:14:44;13.77;;;8.35;;
76268;SDS011;65088;52.352;4.846;2022-12-18T13:17:14;13.55;;;7.57;;
76268;SDS011;65088;52.352;4.846;2022-12-18T13:19:51;16.70;;;9.30;;
76268;SDS011;65088;52.352;4.846;2022-12-18T13:22:31;15.93;;;8.23;;
76268;SDS011;65088;52.352;4.846;2022-12-18T13:25:03;13.07;;;7.88;;
76268;SDS011;65088;52.352;4.846;2022-12-18T13:27:57;16.42;;;8.75;;
76268;SDS011;65088;52.352;4.846;2022-12-18T13:30:46;15.30;;;7.85;;
76268;SDS011;65088;52.352;4.846;2022-12-18T13:33:36;13.70;;;8.07;;
76268;SDS011;65088;52.352;4.846;2022-12-18T13:36:30;15.77;;;7.65;;
76268;SDS011;65088;52.352;4.846;2022-12-18T13:48:20;15.57;;;7.75;;
76268;SDS011;65088;52.352;4.846;2022-12-18T13:50:52;16.08;;;8.18;;
76268;SDS011;65088;52.352;4.846;2022-12-18T13:53:36;15.90;;;8.07;;
76268;SDS011;65088;52.352;4.846;2022-12-18T13:56:14;14.52;;;8.63;;
76268;SDS011;65088;52.352;4.846;2022-12-18T13:59:02;16.08;;;8.77;;
76268;SDS011;65088;52.352;4.846;2022-12-18T14:01:46;13.45;;;7.70;;
76268;SDS011;65088;52.352;4.846;2022-12-18T14:04:19;15.00;;;8.75;;
76268;SDS011;65088;52.352;4.846;2022-12-18T14:06:51;15.15;;;7.80;;
76268;SDS011;65088;52.352;4.846;2022-12-18T14:09:27;17.00;;;9.50;;
76268;SDS011;65088;52.352;4.846;2022-12-18T14:12:03;13.90;;;7.50;;
76268;SDS011;65088;52.352;4.846;2022-12-18T14:14:46;15.73;;;8.90;;
76268;SDS011;65088;52.352;4.846;2022-12-18T14:17:18;13.68;;;7.90;;
76268;SDS011;65088;52.352;4.846;2022-12-18T14:19:48;16.23;;;8.50;;
76268;SDS011;65088;52.352;4.846;2022-12-18T14:22:20;18.13;;;9.73;;
76268;SDS011;65088;52.352;4.846;2022-12-18T14:25:10;17.52;;;8.18;;
76268;SDS011;65088;52.352;4.846;2022-12-18T14:27:45;13.77;;;6.95;;
76268;SDS011;65088;52.352;4.846;2022-12-18T14:30:26;17.23;;;8.20;;
76268;SDS011;65088;52.352;4.846;2022-12-18T14:35:30;16.25;;;8.18;;
76268;SDS011;65088;52.352;4.846;2022-12-18T14:40:59;14.35;;;7.72;;
76268;SDS011;65088;52.352;4.846;2022-12-18T14:43:31;16.63;;;9.05;;
76268;SDS011;65088;52.352;4.846;2022-12-18T14:46:02;16.10;;;8.60;;
76268;SDS011;65088;52.352;4.846;2022-12-18T14:48:36;17.92;;;9.02;;
76268;SDS011;65088;52.352;4.846;2022-12-18T14:51:12;14.57;;;8.48;;
76268;SDS011;65088;52.352;4.846;2022-12-18T14:53:46;17.52;;;9.15;;
76268;SDS011;65088;52.352;4.846;2022-12-18T14:56:20;16.75;;;8.88;;
76268;SDS011;65088;52.352;4.846;2022-12-18T14:58:52;14.98;;;8.63;;
76268;SDS011;65088;52.352;4.846;2022-12-18T15:01:27;15.98;;;8.05;;
76268;SDS011;65088;52.352;4.846;2022-12-18T15:03:59;12.57;;;6.65;;
76268;SDS011;65088;52.352;4.846;2022-12-18T15:06:30;14.40;;;7.90;;
76268;SDS011;65088;52.352;4.846;2022-12-18T15:09:05;15.82;;;9.07;;
76268;SDS011;65088;52.352;4.846;2022-12-18T15:11:54;13.45;;;6.28;;
76268;SDS011;65088;52.352;4.846;2022-12-18T15:14:32;14.13;;;7.82;;
76268;SDS011;65088;52.352;4.846;2022-12-18T15:17:05;15.88;;;8.52;;
76268;SDS011;65088;52.352;4.846;2022-12-18T15:19:43;16.35;;;8.10;;
76268;SDS011;65088;52.352;4.846;2022-12-18T15:22:18;14.90;;;8.57;;
76268;SDS011;65088;52.352;4.846;2022-12-18T15:24:53;15.57;;;9.00;;
76268;SDS011;65088;52.352;4.846;2022-12-18T15:27:27;14.52;;;8.43;;
76268;SDS011;65088;52.352;4.846;2022-12-18T15:30:00;17.17;;;9.05;;
76268;SDS011;65088;52.352;4.846;2022-12-18T15:32:31;15.35;;;8.43;;
76268;SDS011;65088;52.352;4.846;2022-12-18T15:35:02;17.05;;;8.18;;
76268;SDS011;65088;52.352;4.846;2022-12-18T15:37:40;19.40;;;9.32;;
76268;SDS011;65088;52.352;4.846;2022-12-18T15:40:12;16.48;;;8.52;;
76268;SDS011;65088;52.352;4.846;2022-12-18T15:42:44;15.30;;;7.25;;
76268;SDS011;65088;52.352;4.846;2022-12-18T15:45:28;16.23;;;7.93;;
76268;SDS011;65088;52.352;4.846;2022-12-18T15:47:57;16.52;;;8.73;;
76268;SDS011;65088;52.352;4.846;2022-12-18T15:50:27;19.88;;;9.38;;